sensor_id;sensor_type;location;lat;lon;timestamp;P1;durP1;ratioP1;P2;durP2;ratioP2
41546;SDS011;27271;45.412;10.852;2023-06-10T04:32:16;7.80;;;4.90;;
41546;SDS011;27271;45.412;10.852;2023-06-10T04:35:53;11.13;;;5.88;;
41546;SDS011;27271;45.412;10.852;2023-06-10T04:39:22;8.50;;;5.00;;
41546;SDS011;27271;45.412;10.852;2023-06-10T04:42:57;8.25;;;4.70;;
41546;SDS011;27271;45.412;10.852;2023-06-10T04:46:30;5.65;;;3.70;;
41546;SDS011;27271;45.412;10.852;2023-06-10T04:50:00;8.75;;;4.95;;
41546;SDS011;27271;45.412;10.852;2023-06-10T04:53:27;4.80;;;4.13;;
41546;SDS011;27271;45.412;10.852;2023-06-10T04:57:02;5.00;;;3.33;;
41546;SDS011;27271;45.412;10.852;2023-06-10T05:00:29;10.02;;;5.75;;
41546;SDS011;27271;45.412;10.852;2023-06-10T05:04:37;8.75;;;5.50;;
41546;SDS011;27271;45.412;10.852;2023-06-10T05:08:28;10.35;;;5.53;;
41546;SDS011;27271;45.412;10.852;2023-06-10T05:12:36;4.63;;;3.35;;
41546;SDS011;27271;45.412;10.852;2023-06-10T05:16:29;14.07;;;5.57;;
41546;SDS011;27271;45.412;10.852;2023-06-10T05:19:59;11.10;;;6.32;;
41546;SDS011;27271;45.412;10.852;2023-06-10T05:24:35;6.35;;;3.80;;
41546;SDS011;27271;45.412;10.852;2023-06-10T05:27:59;5.60;;;3.45;;
41546;SDS011;27271;45.412;10.852;2023-06-10T05:31:31;5.93;;;4.13;;
41546;SDS011;27271;45.412;10.852;2023-06-10T05:35:10;8.38;;;4.45;;
41546;SDS011;27271;45.412;10.852;2023-06-10T05:38:43;4.88;;;3.90;;
41546;SDS011;27271;45.412;10.852;2023-06-10T05:42:39;7.45;;;4.07;;
41546;SDS011;27271;45.412;10.852;2023-06-10T05:46:13;10.50;;;3.17;;
41546;SDS011;27271;45.412;10.852;2023-06-10T05:53:17;6.70;;;2.77;;
41546;SDS011;27271;45.412;10.852;2023-06-10T05:56:39;4.88;;;2.47;;
41546;SDS011;27271;45.412;10.852;2023-06-10T06:00:02;7.20;;;3.28;;
41546;SDS011;27271;45.412;10.852;2023-06-10T06:03:32;5.50;;;3.15;;
41546;SDS011;27271;45.412;10.852;2023-06-10T06:06:54;5.13;;;2.33;;
41546;SDS011;27271;45.412;10.852;2023-06-10T06:10:17;3.47;;;2.40;;
41546;SDS011;27271;45.412;10.852;2023-06-10T06:13:40;4.43;;;2.40;;
41546;SDS011;27271;45.412;10.852;2023-06-10T06:17:03;5.13;;;2.90;;
41546;SDS011;27271;45.412;10.852;2023-06-10T06:20:25;6.82;;;3.28;;
41546;SDS011;27271;45.412;10.852;2023-06-10T06:23:48;6.20;;;3.83;;
41546;SDS011;27271;45.412;10.852;2023-06-10T06:27:10;7.47;;;2.90;;
41546;SDS011;27271;45.412;10.852;2023-06-10T06:30:32;6.63;;;3.72;;
41546;SDS011;27271;45.412;10.852;2023-06-10T06:33:54;3.83;;;3.13;;
41546;SDS011;27271;45.412;10.852;2023-06-10T06:37:16;7.43;;;4.75;;
41546;SDS011;27271;45.412;10.852;2023-06-10T06:40:39;7.80;;;4.38;;
41546;SDS011;27271;45.412;10.852;2023-06-10T06:44:01;9.15;;;4.82;;
41546;SDS011;27271;45.412;10.852;2023-06-10T06:47:26;3.63;;;2.90;;
41546;SDS011;27271;45.412;10.852;2023-06-10T06:50:49;9.07;;;4.78;;
41546;SDS011;27271;45.412;10.852;2023-06-10T06:54:11;8.43;;;4.60;;
41546;SDS011;27271;45.412;10.852;2023-06-10T06:57:33;9.98;;;4.20;;
41546;SDS011;27271;45.412;10.852;2023-06-10T07:00:55;14.05;;;4.65;;
41546;SDS011;27271;45.412;10.852;2023-06-10T07:04:19;7.88;;;4.50;;
41546;SDS011;27271;45.412;10.852;2023-06-10T07:07:43;6.78;;;4.72;;
41546;SDS011;27271;45.412;10.852;2023-06-10T07:11:05;11.35;;;6.07;;
41546;SDS011;27271;45.412;10.852;2023-06-10T07:14:27;11.45;;;5.20;;
41546;SDS011;27271;45.412;10.852;2023-06-10T07:17:49;6.50;;;4.95;;
41546;SDS011;27271;45.412;10.852;2023-06-10T07:21:12;8.30;;;4.30;;
41546;SDS011;27271;45.412;10.852;2023-06-10T07:24:34;9.55;;;4.55;;
41546;SDS011;27271;45.412;10.852;2023-06-10T07:27:56;8.93;;;5.90;;
41546;SDS011;27271;45.412;10.852;2023-06-10T07:31:18;7.57;;;4.82;;
41546;SDS011;27271;45.412;10.852;2023-06-10T07:34:40;12.48;;;4.90;;
41546;SDS011;27271;45.412;10.852;2023-06-10T07:38:02;8.07;;;3.45;;
41546;SDS011;27271;45.412;10.852;2023-06-10T07:41:24;10.48;;;4.05;;
41546;SDS011;27271;45.412;10.852;2023-06-10T07:44:47;11.43;;;4.18;;
41546;SDS011;27271;45.412;10.852;2023-06-10T07:48:09;12.65;;;5.10;;
41546;SDS011;27271;45.412;10.852;2023-06-10T07:51:31;7.70;;;3.53;;
41546;SDS011;27271;45.412;10.852;2023-06-10T07:54:53;5.95;;;4.60;;
41546;SDS011;27271;45.412;10.852;2023-06-10T07:58:15;6.22;;;3.85;;
41546;SDS011;27271;45.412;10.852;2023-06-10T08:01:37;6.57;;;3.00;;
41546;SDS011;27271;45.412;10.852;2023-06-10T08:05:01;6.13;;;4.40;;
41546;SDS011;27271;45.412;10.852;2023-06-10T08:08:23;6.60;;;3.17;;
41546;SDS011;27271;45.412;10.852;2023-06-10T08:11:48;6.10;;;3.75;;
41546;SDS011;27271;45.412;10.852;2023-06-10T08:15:11;6.22;;;3.90;;
41546;SDS011;27271;45.412;10.852;2023-06-10T08:18:34;5.70;;;3.25;;
41546;SDS011;27271;45.412;10.852;2023-06-10T08:21:56;7.95;;;3.10;;
41546;SDS011;27271;45.412;10.852;2023-06-10T08:25:18;8.68;;;3.05;;
41546;SDS011;27271;45.412;10.852;2023-06-10T08:28:40;3.03;;;2.60;;
41546;SDS011;27271;45.412;10.852;2023-06-10T08:32:02;4.22;;;2.72;;
41546;SDS011;27271;45.412;10.852;2023-06-10T08:35:24;3.63;;;2.13;;
41546;SDS011;27271;45.412;10.852;2023-06-10T08:38:46;13.60;;;4.13;;
41546;SDS011;27271;45.412;10.852;2023-06-10T08:45:59;3.65;;;1.70;;
41546;SDS011;27271;45.412;10.852;2023-06-10T08:49:23;3.45;;;1.95;;
41546;SDS011;27271;45.412;10.852;2023-06-10T08:52:48;1.58;;;1.40;;
41546;SDS011;27271;45.412;10.852;2023-06-10T08:56:15;5.68;;;2.28;;
41546;SDS011;27271;45.412;10.852;2023-06-10T08:59:38;1.92;;;1.40;;
41546;SDS011;27271;45.412;10.852;2023-06-10T09:03:04;2.00;;;1.45;;
41546;SDS011;27271;45.412;10.852;2023-06-10T09:06:27;2.95;;;1.92;;
41546;SDS011;27271;45.412;10.852;2023-06-10T09:09:49;2.45;;;1.85;;
41546;SDS011;27271;45.412;10.852;2023-06-10T09:13:11;2.28;;;1.80;;
41546;SDS011;27271;45.412;10.852;2023-06-10T09:16:43;1.83;;;1.30;;
41546;SDS011;27271;45.412;10.852;2023-06-10T09:25:38;2.17;;;1.20;;
41546;SDS011;27271;45.412;10.852;2023-06-10T09:29:17;2.08;;;1.23;;
41546;SDS011;27271;45.412;10.852;2023-06-10T09:32:39;7.70;;;1.83;;
41546;SDS011;27271;45.412;10.852;2023-06-10T09:36:01;2.47;;;1.05;;
41546;SDS011;27271;45.412;10.852;2023-06-10T09:39:24;0.75;;;0.50;;
41546;SDS011;27271;45.412;10.852;2023-06-10T09:42:46;3.22;;;0.93;;
41546;SDS011;27271;45.412;10.852;2023-06-10T09:46:19;0.88;;;0.75;;
41546;SDS011;27271;45.412;10.852;2023-06-10T09:49:42;1.85;;;1.23;;
41546;SDS011;27271;45.412;10.852;2023-06-10T09:53:04;3.33;;;0.65;;
41546;SDS011;27271;45.412;10.852;2023-06-10T09:56:37;0.57;;;0.52;;
41546;SDS011;27271;45.412;10.852;2023-06-10T09:59:59;0.60;;;0.60;;
41546;SDS011;27271;45.412;10.852;2023-06-10T10:03:31;1.48;;;1.30;;
41546;SDS011;27271;45.412;10.852;2023-06-10T10:06:53;1.02;;;1.00;;
41546;SDS011;27271;45.412;10.852;2023-06-10T10:10:16;2.65;;;0.70;;
41546;SDS011;27271;45.412;10.852;2023-06-10T10:13:40;0.70;;;0.50;;
41546;SDS011;27271;45.412;10.852;2023-06-10T10:17:04;1.83;;;1.08;;
41546;SDS011;27271;45.412;10.852;2023-06-10T10:20:33;0.90;;;0.82;;
41546;SDS011;27271;45.412;10.852;2023-06-10T10:24:03;1.88;;;0.73;;
41546;SDS011;27271;45.412;10.852;2023-06-10T10:27:33;3.45;;;0.93;;
41546;SDS011;27271;45.412;10.852;2023-06-10T10:31:03;0.30;;;0.28;;
41546;SDS011;27271;45.412;10.852;2023-06-10T10:34:35;1.42;;;0.38;;
41546;SDS011;27271;45.412;10.852;2023-06-10T10:38:05;2.10;;;0.77;;
41546;SDS011;27271;45.412;10.852;2023-06-10T10:41:28;0.77;;;0.68;;
41546;SDS011;27271;45.412;10.852;2023-06-10T10:44:52;0.70;;;0.70;;
41546;SDS011;27271;45.412;10.852;2023-06-10T10:48:15;2.33;;;1.40;;
41546;SDS011;27271;45.412;10.852;2023-06-10T10:51:37;1.35;;;0.77;;
41546;SDS011;27271;45.412;10.852;2023-06-10T10:55:19;1.15;;;0.68;;
41546;SDS011;27271;45.412;10.852;2023-06-10T10:58:42;1.58;;;0.70;;
41546;SDS011;27271;45.412;10.852;2023-06-10T11:02:32;4.05;;;1.30;;
41546;SDS011;27271;45.412;10.852;2023-06-10T11:06:05;0.43;;;0.43;;
41546;SDS011;27271;45.412;10.852;2023-06-10T11:09:37;1.25;;;1.00;;
41546;SDS011;27271;45.412;10.852;2023-06-10T11:12:59;2.45;;;0.88;;
41546;SDS011;27271;45.412;10.852;2023-06-10T11:16:27;1.52;;;1.15;;
41546;SDS011;27271;45.412;10.852;2023-06-10T11:19:50;0.65;;;0.52;;
41546;SDS011;27271;45.412;10.852;2023-06-10T11:23:25;1.65;;;1.30;;
41546;SDS011;27271;45.412;10.852;2023-06-10T11:26:51;2.35;;;1.23;;
41546;SDS011;27271;45.412;10.852;2023-06-10T11:30:19;6.65;;;1.92;;
41546;SDS011;27271;45.412;10.852;2023-06-10T11:33:42;0.80;;;0.80;;
41546;SDS011;27271;45.412;10.852;2023-06-10T11:37:04;3.15;;;0.88;;
41546;SDS011;27271;45.412;10.852;2023-06-10T11:40:27;0.70;;;0.68;;
41546;SDS011;27271;45.412;10.852;2023-06-10T11:43:52;2.95;;;1.23;;
41546;SDS011;27271;45.412;10.852;2023-06-10T11:47:18;2.42;;;0.98;;
41546;SDS011;27271;45.412;10.852;2023-06-10T11:50:41;2.20;;;0.98;;
41546;SDS011;27271;45.412;10.852;2023-06-10T11:54:03;0.85;;;0.75;;
41546;SDS011;27271;45.412;10.852;2023-06-10T11:57:27;1.48;;;1.02;;
41546;SDS011;27271;45.412;10.852;2023-06-10T12:00:50;0.75;;;0.60;;
41546;SDS011;27271;45.412;10.852;2023-06-10T12:04:17;1.90;;;1.20;;
41546;SDS011;27271;45.412;10.852;2023-06-10T12:07:40;1.30;;;1.20;;
41546;SDS011;27271;45.412;10.852;2023-06-10T12:11:02;1.20;;;0.80;;
41546;SDS011;27271;45.412;10.852;2023-06-10T12:18:32;1.75;;;1.48;;
41546;SDS011;27271;45.412;10.852;2023-06-10T12:21:55;1.40;;;1.13;;
41546;SDS011;27271;45.412;10.852;2023-06-10T12:25:23;1.60;;;0.90;;
41546;SDS011;27271;45.412;10.852;2023-06-10T12:28:50;1.95;;;1.50;;
41546;SDS011;27271;45.412;10.852;2023-06-10T12:32:12;1.98;;;1.20;;
41546;SDS011;27271;45.412;10.852;2023-06-10T12:35:36;4.00;;;1.40;;
41546;SDS011;27271;45.412;10.852;2023-06-10T12:39:13;1.45;;;1.00;;
41546;SDS011;27271;45.412;10.852;2023-06-10T12:42:35;1.23;;;0.90;;
41546;SDS011;27271;45.412;10.852;2023-06-10T12:46:08;1.60;;;0.82;;
41546;SDS011;27271;45.412;10.852;2023-06-10T12:49:31;0.93;;;0.75;;
41546;SDS011;27271;45.412;10.852;2023-06-10T12:52:53;1.20;;;1.05;;
41546;SDS011;27271;45.412;10.852;2023-06-10T12:56:15;1.42;;;1.33;;
41546;SDS011;27271;45.412;10.852;2023-06-10T12:59:37;1.73;;;0.93;;
41546;SDS011;27271;45.412;10.852;2023-06-10T13:03:00;0.38;;;0.38;;
41546;SDS011;27271;45.412;10.852;2023-06-10T13:06:23;1.08;;;0.50;;
41546;SDS011;27271;45.412;10.852;2023-06-10T13:09:47;0.40;;;0.40;;
41546;SDS011;27271;45.412;10.852;2023-06-10T13:13:10;0.88;;;0.77;;
41546;SDS011;27271;45.412;10.852;2023-06-10T13:16:32;1.25;;;1.02;;
41546;SDS011;27271;45.412;10.852;2023-06-10T13:19:55;2.22;;;1.60;;
41546;SDS011;27271;45.412;10.852;2023-06-10T13:23:17;2.45;;;1.38;;
41546;SDS011;27271;45.412;10.852;2023-06-10T13:26:39;1.33;;;0.85;;
41546;SDS011;27271;45.412;10.852;2023-06-10T13:30:02;1.55;;;1.27;;
41546;SDS011;27271;45.412;10.852;2023-06-10T13:33:24;1.58;;;1.35;;
41546;SDS011;27271;45.412;10.852;2023-06-10T13:36:46;4.32;;;1.50;;
41546;SDS011;27271;45.412;10.852;2023-06-10T13:40:08;4.15;;;1.58;;
41546;SDS011;27271;45.412;10.852;2023-06-10T13:43:31;2.13;;;1.73;;
41546;SDS011;27271;45.412;10.852;2023-06-10T13:46:53;3.72;;;1.10;;
41546;SDS011;27271;45.412;10.852;2023-06-10T13:50:15;3.72;;;1.30;;
41546;SDS011;27271;45.412;10.852;2023-06-10T13:53:37;4.72;;;1.92;;
41546;SDS011;27271;45.412;10.852;2023-06-10T13:56:59;4.13;;;1.98;;
41546;SDS011;27271;45.412;10.852;2023-06-10T14:00:22;2.70;;;1.65;;
41546;SDS011;27271;45.412;10.852;2023-06-10T14:03:44;2.47;;;1.60;;
41546;SDS011;27271;45.412;10.852;2023-06-10T14:07:06;3.15;;;1.15;;
41546;SDS011;27271;45.412;10.852;2023-06-10T14:10:28;1.33;;;0.90;;
41546;SDS011;27271;45.412;10.852;2023-06-10T14:13:50;4.75;;;2.90;;
41546;SDS011;27271;45.412;10.852;2023-06-10T14:17:13;1.45;;;1.15;;
41546;SDS011;27271;45.412;10.852;2023-06-10T14:20:35;2.40;;;0.73;;
41546;SDS011;27271;45.412;10.852;2023-06-10T14:23:57;4.35;;;1.80;;
41546;SDS011;27271;45.412;10.852;2023-06-10T14:27:19;1.65;;;0.90;;
41546;SDS011;27271;45.412;10.852;2023-06-10T14:30:42;2.63;;;1.25;;
41546;SDS011;27271;45.412;10.852;2023-06-10T14:34:05;3.85;;;1.67;;
41546;SDS011;27271;45.412;10.852;2023-06-10T14:37:30;4.03;;;1.40;;
41546;SDS011;27271;45.412;10.852;2023-06-10T14:40:52;2.53;;;0.98;;
41546;SDS011;27271;45.412;10.852;2023-06-10T14:44:14;1.25;;;0.80;;
41546;SDS011;27271;45.412;10.852;2023-06-10T14:47:36;2.80;;;0.68;;
41546;SDS011;27271;45.412;10.852;2023-06-10T14:50:58;2.95;;;1.27;;
41546;SDS011;27271;45.412;10.852;2023-06-10T14:54:21;1.30;;;1.10;;
41546;SDS011;27271;45.412;10.852;2023-06-10T14:57:44;1.08;;;0.68;;
41546;SDS011;27271;45.412;10.852;2023-06-10T15:01:06;1.55;;;0.75;;
41546;SDS011;27271;45.412;10.852;2023-06-10T15:04:28;1.20;;;0.63;;
41546;SDS011;27271;45.412;10.852;2023-06-10T15:07:50;1.73;;;1.48;;
41546;SDS011;27271;45.412;10.852;2023-06-10T15:11:12;0.77;;;0.70;;
41546;SDS011;27271;45.412;10.852;2023-06-10T15:14:35;2.33;;;0.85;;
41546;SDS011;27271;45.412;10.852;2023-06-10T15:17:57;1.08;;;0.60;;
41546;SDS011;27271;45.412;10.852;2023-06-10T15:21:19;1.75;;;1.13;;
41546;SDS011;27271;45.412;10.852;2023-06-10T15:24:41;1.50;;;0.90;;
41546;SDS011;27271;45.412;10.852;2023-06-10T15:28:03;1.30;;;0.85;;
41546;SDS011;27271;45.412;10.852;2023-06-10T15:31:27;0.43;;;0.30;;
41546;SDS011;27271;45.412;10.852;2023-06-10T15:34:49;2.65;;;1.30;;
41546;SDS011;27271;45.412;10.852;2023-06-10T15:38:12;1.10;;;1.00;;
41546;SDS011;27271;45.412;10.852;2023-06-10T15:41:35;1.63;;;0.85;;
41546;SDS011;27271;45.412;10.852;2023-06-10T15:44:57;1.85;;;1.38;;
41546;SDS011;27271;45.412;10.852;2023-06-10T15:48:19;2.35;;;0.73;;
41546;SDS011;27271;45.412;10.852;2023-06-10T15:51:41;1.38;;;1.02;;
41546;SDS011;27271;45.412;10.852;2023-06-10T15:55:10;1.77;;;1.20;;
41546;SDS011;27271;45.412;10.852;2023-06-10T15:58:32;2.78;;;1.50;;
41546;SDS011;27271;45.412;10.852;2023-06-10T16:01:54;1.73;;;0.88;;
41546;SDS011;27271;45.412;10.852;2023-06-10T16:05:17;2.05;;;1.13;;
41546;SDS011;27271;45.412;10.852;2023-06-10T16:08:39;2.25;;;1.27;;
41546;SDS011;27271;45.412;10.852;2023-06-10T16:12:01;1.33;;;0.80;;
41546;SDS011;27271;45.412;10.852;2023-06-10T16:15:24;1.52;;;0.80;;
41546;SDS011;27271;45.412;10.852;2023-06-10T16:18:46;1.23;;;1.10;;
41546;SDS011;27271;45.412;10.852;2023-06-10T16:22:08;5.55;;;1.27;;
41546;SDS011;27271;45.412;10.852;2023-06-10T16:25:30;1.40;;;0.88;;
41546;SDS011;27271;45.412;10.852;2023-06-10T16:28:55;1.38;;;0.70;;
41546;SDS011;27271;45.412;10.852;2023-06-10T16:32:17;2.28;;;1.30;;
41546;SDS011;27271;45.412;10.852;2023-06-10T16:35:39;0.90;;;0.52;;
41546;SDS011;27271;45.412;10.852;2023-06-10T16:39:01;14.57;;;1.25;;
41546;SDS011;27271;45.412;10.852;2023-06-10T16:42:23;6.13;;;0.90;;
41546;SDS011;27271;45.412;10.852;2023-06-10T16:45:45;2.20;;;1.10;;
41546;SDS011;27271;45.412;10.852;2023-06-10T16:49:08;1.63;;;1.05;;
41546;SDS011;27271;45.412;10.852;2023-06-10T16:52:30;3.03;;;1.58;;
41546;SDS011;27271;45.412;10.852;2023-06-10T16:55:52;0.88;;;0.52;;
41546;SDS011;27271;45.412;10.852;2023-06-10T16:59:14;1.30;;;0.77;;
41546;SDS011;27271;45.412;10.852;2023-06-10T17:02:36;1.10;;;0.85;;
41546;SDS011;27271;45.412;10.852;2023-06-10T17:05:58;0.80;;;0.63;;
41546;SDS011;27271;45.412;10.852;2023-06-10T17:09:21;1.67;;;0.65;;
41546;SDS011;27271;45.412;10.852;2023-06-10T17:12:43;2.15;;;0.75;;
41546;SDS011;27271;45.412;10.852;2023-06-10T17:16:05;0.20;;;0.20;;
41546;SDS011;27271;45.412;10.852;2023-06-10T17:19:28;3.45;;;0.95;;
41546;SDS011;27271;45.412;10.852;2023-06-10T17:22:50;0.70;;;0.63;;
41546;SDS011;27271;45.412;10.852;2023-06-10T17:26:12;2.50;;;0.75;;
41546;SDS011;27271;45.412;10.852;2023-06-10T17:29:36;0.80;;;0.73;;
41546;SDS011;27271;45.412;10.852;2023-06-10T17:32:58;1.55;;;1.00;;
41546;SDS011;27271;45.412;10.852;2023-06-10T17:36:20;0.40;;;0.32;;
41546;SDS011;27271;45.412;10.852;2023-06-10T17:39:42;0.82;;;0.73;;
41546;SDS011;27271;45.412;10.852;2023-06-10T17:43:04;0.95;;;0.80;;
41546;SDS011;27271;45.412;10.852;2023-06-10T17:46:29;2.70;;;0.85;;
41546;SDS011;27271;45.412;10.852;2023-06-10T17:49:51;1.00;;;0.90;;
41546;SDS011;27271;45.412;10.852;2023-06-10T17:53:14;1.20;;;0.82;;
41546;SDS011;27271;45.412;10.852;2023-06-10T17:56:36;2.67;;;0.80;;
41546;SDS011;27271;45.412;10.852;2023-06-10T17:59:58;1.20;;;0.70;;
41546;SDS011;27271;45.412;10.852;2023-06-10T18:03:23;7.15;;;1.10;;
41546;SDS011;27271;45.412;10.852;2023-06-10T18:06:56;6.10;;;1.60;;
41546;SDS011;27271;45.412;10.852;2023-06-10T18:10:18;3.78;;;1.15;;
41546;SDS011;27271;45.412;10.852;2023-06-10T18:13:41;4.55;;;1.45;;
41546;SDS011;27271;45.412;10.852;2023-06-10T18:17:03;3.15;;;1.13;;
41546;SDS011;27271;45.412;10.852;2023-06-10T18:20:25;1.75;;;1.38;;
41546;SDS011;27271;45.412;10.852;2023-06-10T18:23:48;2.75;;;1.35;;
41546;SDS011;27271;45.412;10.852;2023-06-10T18:27:12;0.90;;;0.73;;
41546;SDS011;27271;45.412;10.852;2023-06-10T18:30:39;1.27;;;1.00;;
41546;SDS011;27271;45.412;10.852;2023-06-10T18:34:03;1.60;;;0.90;;
41546;SDS011;27271;45.412;10.852;2023-06-10T18:37:38;1.35;;;1.08;;
41546;SDS011;27271;45.412;10.852;2023-06-10T18:41:00;2.05;;;1.10;;
41546;SDS011;27271;45.412;10.852;2023-06-10T18:44:22;1.30;;;1.20;;
41546;SDS011;27271;45.412;10.852;2023-06-10T18:47:44;3.05;;;1.17;;
41546;SDS011;27271;45.412;10.852;2023-06-10T18:51:18;2.33;;;1.33;;
41546;SDS011;27271;45.412;10.852;2023-06-10T18:54:40;3.03;;;1.63;;
41546;SDS011;27271;45.412;10.852;2023-06-10T18:58:05;1.35;;;1.02;;
41546;SDS011;27271;45.412;10.852;2023-06-10T19:01:27;1.08;;;0.75;;
41546;SDS011;27271;45.412;10.852;2023-06-10T19:04:50;0.17;;;0.17;;
41546;SDS011;27271;45.412;10.852;2023-06-10T19:08:12;0.73;;;0.63;;
41546;SDS011;27271;45.412;10.852;2023-06-10T19:11:34;0.25;;;0.22;;
41546;SDS011;27271;45.412;10.852;2023-06-10T19:14:56;0.38;;;0.25;;
41546;SDS011;27271;45.412;10.852;2023-06-10T19:18:18;0.60;;;0.47;;
41546;SDS011;27271;45.412;10.852;2023-06-10T19:21:40;2.17;;;0.77;;
41546;SDS011;27271;45.412;10.852;2023-06-10T19:25:03;0.52;;;0.32;;
41546;SDS011;27271;45.412;10.852;2023-06-10T19:28:27;0.50;;;0.20;;
41546;SDS011;27271;45.412;10.852;2023-06-10T19:31:49;3.17;;;0.60;;
41546;SDS011;27271;45.412;10.852;2023-06-10T19:35:12;2.38;;;0.65;;
41546;SDS011;27271;45.412;10.852;2023-06-10T19:38:34;3.45;;;0.65;;
41546;SDS011;27271;45.412;10.852;2023-06-10T19:41:56;0.77;;;0.70;;
41546;SDS011;27271;45.412;10.852;2023-06-10T19:45:18;1.13;;;0.52;;
41546;SDS011;27271;45.412;10.852;2023-06-10T19:48:41;0.30;;;0.30;;
41546;SDS011;27271;45.412;10.852;2023-06-10T19:52:03;0.93;;;0.85;;
41546;SDS011;27271;45.412;10.852;2023-06-10T19:55:28;1.45;;;0.70;;
41546;SDS011;27271;45.412;10.852;2023-06-10T19:58:50;2.90;;;0.73;;
41546;SDS011;27271;45.412;10.852;2023-06-10T20:02:13;0.63;;;0.60;;
41546;SDS011;27271;45.412;10.852;2023-06-10T20:05:35;0.75;;;0.75;;
41546;SDS011;27271;45.412;10.852;2023-06-10T20:09:02;1.05;;;0.40;;
41546;SDS011;27271;45.412;10.852;2023-06-10T20:12:24;0.85;;;0.65;;
41546;SDS011;27271;45.412;10.852;2023-06-10T20:15:46;0.80;;;0.77;;
41546;SDS011;27271;45.412;10.852;2023-06-10T20:19:08;0.68;;;0.50;;
41546;SDS011;27271;45.412;10.852;2023-06-10T20:22:31;1.40;;;0.80;;
41546;SDS011;27271;45.412;10.852;2023-06-10T20:25:53;1.00;;;0.70;;
41546;SDS011;27271;45.412;10.852;2023-06-10T20:29:15;1.38;;;1.27;;
41546;SDS011;27271;45.412;10.852;2023-06-10T20:32:37;0.70;;;0.70;;
41546;SDS011;27271;45.412;10.852;2023-06-10T20:35:59;2.63;;;1.25;;
41546;SDS011;27271;45.412;10.852;2023-06-10T20:39:21;0.98;;;0.65;;
41546;SDS011;27271;45.412;10.852;2023-06-10T20:42:43;0.85;;;0.60;;
41546;SDS011;27271;45.412;10.852;2023-06-10T20:46:06;4.03;;;2.15;;
41546;SDS011;27271;45.412;10.852;2023-06-10T20:49:28;0.50;;;0.50;;
41546;SDS011;27271;45.412;10.852;2023-06-10T20:52:50;0.63;;;0.60;;
41546;SDS011;27271;45.412;10.852;2023-06-10T20:56:12;2.28;;;0.90;;
41546;SDS011;27271;45.412;10.852;2023-06-10T20:59:34;1.10;;;0.85;;
41546;SDS011;27271;45.412;10.852;2023-06-10T21:02:56;1.90;;;1.40;;
41546;SDS011;27271;45.412;10.852;2023-06-10T21:06:18;2.60;;;0.98;;
41546;SDS011;27271;45.412;10.852;2023-06-10T21:09:41;2.65;;;1.10;;
41546;SDS011;27271;45.412;10.852;2023-06-10T21:13:03;2.95;;;1.65;;
41546;SDS011;27271;45.412;10.852;2023-06-10T21:16:25;0.88;;;0.70;;
41546;SDS011;27271;45.412;10.852;2023-06-10T21:19:48;1.50;;;1.00;;
41546;SDS011;27271;45.412;10.852;2023-06-10T21:23:10;0.60;;;0.55;;
41546;SDS011;27271;45.412;10.852;2023-06-10T21:26:33;5.38;;;1.17;;
41546;SDS011;27271;45.412;10.852;2023-06-10T21:29:56;2.58;;;1.83;;
41546;SDS011;27271;45.412;10.852;2023-06-10T21:33:19;1.83;;;1.42;;
41546;SDS011;27271;45.412;10.852;2023-06-10T21:36:42;1.17;;;0.80;;
41546;SDS011;27271;45.412;10.852;2023-06-10T21:40:05;1.83;;;1.48;;
41546;SDS011;27271;45.412;10.852;2023-06-10T21:43:27;0.73;;;0.63;;
41546;SDS011;27271;45.412;10.852;2023-06-10T21:46:50;0.88;;;0.73;;
41546;SDS011;27271;45.412;10.852;2023-06-10T21:50:12;0.88;;;0.63;;
41546;SDS011;27271;45.412;10.852;2023-06-10T21:53:34;0.68;;;0.68;;
41546;SDS011;27271;45.412;10.852;2023-06-10T21:56:56;0.50;;;0.50;;
41546;SDS011;27271;45.412;10.852;2023-06-10T22:00:18;1.48;;;0.93;;
41546;SDS011;27271;45.412;10.852;2023-06-10T22:03:41;0.82;;;0.80;;
41546;SDS011;27271;45.412;10.852;2023-06-10T22:07:03;2.25;;;0.77;;
41546;SDS011;27271;45.412;10.852;2023-06-10T22:10:25;1.33;;;0.93;;
41546;SDS011;27271;45.412;10.852;2023-06-10T22:13:48;0.63;;;0.63;;
41546;SDS011;27271;45.412;10.852;2023-06-10T22:17:10;1.23;;;0.98;;
41546;SDS011;27271;45.412;10.852;2023-06-10T22:20:33;1.67;;;0.80;;
41546;SDS011;27271;45.412;10.852;2023-06-10T22:23:55;2.58;;;1.73;;
41546;SDS011;27271;45.412;10.852;2023-06-10T22:27:17;1.90;;;1.52;;
